createdAt,value
2022-11-08T00:01:37.867Z,100058.00
2022-11-08T00:04:26.837Z,100071.03
2022-11-08T00:07:32.943Z,100072.81
2022-11-08T00:10:38.940Z,100065.28
2022-11-08T00:13:46.406Z,100056.81
2022-11-08T00:16:34.858Z,100057.16
2022-11-08T00:19:23.284Z,100048.50
2022-11-08T00:22:12.330Z,100053.44
2022-11-08T00:25:00.777Z,100046.19
2022-11-08T00:27:49.266Z,100022.00
2022-11-08T00:30:39.034Z,100036.66
2022-11-08T00:33:27.479Z,100052.06
2022-11-08T00:36:15.976Z,100043.38
2022-11-08T00:39:04.594Z,100043.44
2022-11-08T00:41:53.051Z,100032.91
2022-11-08T00:44:41.581Z,100032.34
2022-11-08T00:47:31.339Z,100039.59
2022-11-08T00:50:19.791Z,100034.22
2022-11-08T00:53:08.322Z,100022.75
2022-11-08T00:56:00.611Z,100020.69
2022-11-08T00:58:49.032Z,99987.22
2022-11-08T01:01:37.603Z,100024.22
2022-11-08T01:04:27.442Z,100024.19
2022-11-08T01:07:15.857Z,100026.25
2022-11-08T01:10:04.594Z,100028.53
2022-11-08T01:12:53.049Z,100022.28
2022-11-08T01:15:42.930Z,99999.78
2022-11-08T01:18:31.412Z,100029.06
2022-11-08T01:21:21.585Z,100019.03
2022-11-08T01:24:10.218Z,100021.69
2022-11-08T01:26:58.749Z,100009.53
2022-11-08T01:29:47.168Z,100005.88
2022-11-08T01:32:35.603Z,100003.59
2022-11-08T01:35:24.207Z,100002.16
2022-11-08T01:38:14.174Z,100002.56
2022-11-08T01:41:02.648Z,99998.44
2022-11-08T01:43:52.299Z,99983.22
2022-11-08T01:46:43.166Z,99981.19
2022-11-08T01:49:38.769Z,99972.91
2022-11-08T01:52:33.033Z,99975.59
2022-11-08T01:55:24.795Z,99970.47
2022-11-08T01:58:16.546Z,99942.97
2022-11-08T02:01:05.491Z,99964.94
2022-11-08T02:03:54.095Z,99950.31
2022-11-08T02:06:43.610Z,99946.59
2022-11-08T02:09:32.517Z,99952.75
2022-11-08T02:12:22.932Z,99933.91
2022-11-08T02:15:12.041Z,99937.84
2022-11-08T02:18:00.633Z,99938.66
2022-11-08T02:20:54.236Z,99922.72
2022-11-08T02:23:47.369Z,99924.00
2022-11-08T02:26:36.649Z,99924.81
2022-11-08T02:29:30.748Z,99916.06
2022-11-08T02:32:19.204Z,99915.50
2022-11-08T02:35:11.565Z,99916.84
2022-11-08T02:38:00.002Z,99921.78
2022-11-08T02:40:51.678Z,99900.97
2022-11-08T02:43:40.156Z,99907.38
2022-11-08T02:46:28.605Z,99910.22
2022-11-08T02:49:17.032Z,99912.38
2022-11-08T02:52:06.022Z,99898.31
2022-11-08T02:54:54.462Z,99902.22
2022-11-08T02:57:44.248Z,99901.56
2022-11-08T03:00:32.693Z,99908.75
2022-11-08T03:03:21.129Z,99904.31
2022-11-08T03:06:09.626Z,99904.81
2022-11-08T03:08:58.031Z,99899.22
2022-11-08T03:11:46.618Z,99906.72
2022-11-08T03:14:36.366Z,99914.50
2022-11-08T03:17:24.781Z,99917.50
2022-11-08T03:20:13.284Z,99903.38
2022-11-08T03:23:02.831Z,99903.28
2022-11-08T03:25:51.294Z,99905.44
2022-11-08T03:28:39.731Z,99902.25
2022-11-08T03:31:29.510Z,99904.66
2022-11-08T03:34:18.027Z,99902.50
2022-11-08T03:37:07.054Z,99871.09
2022-11-08T03:39:55.555Z,99911.06
2022-11-08T03:42:43.981Z,99920.47
2022-11-08T03:45:32.432Z,99913.41
2022-11-08T03:48:23.466Z,99894.97
2022-11-08T03:51:11.905Z,99902.97
2022-11-08T03:54:00.322Z,99907.28
2022-11-08T03:56:48.746Z,99891.13
2022-11-08T03:59:37.178Z,99897.47
2022-11-08T04:02:25.903Z,99905.19
2022-11-08T04:05:16.195Z,99900.22
2022-11-08T04:08:06.358Z,99905.38
2022-11-08T04:10:55.544Z,99901.25
2022-11-08T04:14:01.273Z,99893.81
2022-11-08T04:16:49.759Z,99903.38
2022-11-08T04:19:56.061Z,99893.16
2022-11-08T04:22:45.808Z,99891.88
2022-11-08T04:25:35.307Z,99873.13
2022-11-08T04:28:26.080Z,99878.56
2022-11-08T04:31:16.635Z,99882.25
2022-11-08T04:34:05.082Z,99888.69
2022-11-08T04:36:53.495Z,99898.69
2022-11-08T04:39:43.241Z,99889.41
2022-11-08T04:42:31.634Z,99891.03
2022-11-08T04:45:20.046Z,99877.72
2022-11-08T04:48:08.494Z,99880.13
2022-11-08T04:50:57.483Z,99873.78
2022-11-08T04:53:46.377Z,99873.31
2022-11-08T04:56:36.167Z,99870.66
2022-11-08T04:59:24.598Z,99864.59
2022-11-08T05:02:13.168Z,99868.63
2022-11-08T05:05:01.655Z,99856.69
2022-11-08T05:07:50.145Z,99855.38
2022-11-08T05:10:38.549Z,99862.56
2022-11-08T05:13:28.312Z,99854.09
2022-11-08T05:16:18.369Z,99850.88
2022-11-08T05:19:11.975Z,99854.66
2022-11-08T05:22:18.800Z,99854.63
2022-11-08T05:25:07.933Z,99857.41
2022-11-08T05:27:56.362Z,99840.66
2022-11-08T05:30:46.144Z,99855.00
2022-11-08T05:33:34.651Z,99857.66
2022-11-08T05:36:23.140Z,99846.94
2022-11-08T05:39:11.526Z,99843.97
2022-11-08T05:41:59.957Z,99808.03
2022-11-08T05:44:48.403Z,99847.91
2022-11-08T05:47:38.396Z,99840.41
2022-11-08T05:50:26.848Z,99838.19
2022-11-08T05:53:15.496Z,99835.94
2022-11-08T05:56:05.031Z,99828.31
2022-11-08T05:58:53.503Z,99830.03
2022-11-08T06:01:42.034Z,99834.25
2022-11-08T06:04:32.138Z,99816.66
2022-11-08T06:07:20.599Z,99802.16
2022-11-08T06:10:10.134Z,99795.88
2022-11-08T06:13:00.183Z,99790.38
2022-11-08T06:15:48.643Z,99790.91
2022-11-08T06:18:37.312Z,99809.91
2022-11-08T06:21:27.315Z,99807.25
2022-11-08T06:24:16.410Z,99799.22
2022-11-08T06:27:05.128Z,99700.53
2022-11-08T06:29:53.675Z,99812.94
2022-11-08T06:32:42.166Z,99814.69
2022-11-08T06:35:30.730Z,99819.31
2022-11-08T06:38:20.618Z,99820.84
2022-11-08T06:41:10.180Z,99827.28
2022-11-08T06:43:58.618Z,99815.53
2022-11-08T06:46:47.154Z,99823.34
2022-11-08T06:49:37.067Z,99828.13
2022-11-08T06:52:25.512Z,99835.31
2022-11-08T06:55:15.630Z,99835.22
2022-11-08T06:58:04.679Z,99847.88
2022-11-08T07:00:53.150Z,99838.53
2022-11-08T07:03:41.676Z,99843.91
2022-11-08T07:06:31.246Z,99844.47
2022-11-08T07:09:19.844Z,99773.75
2022-11-08T07:12:09.867Z,99838.28
2022-11-08T07:14:58.363Z,99838.09
2022-11-08T07:17:46.804Z,99838.94
2022-11-08T07:20:36.159Z,99698.59
2022-11-08T07:23:26.831Z,99839.97
2022-11-08T07:26:15.789Z,99833.78
2022-11-08T07:29:05.571Z,99841.00
2022-11-08T07:31:54.015Z,99845.28
2022-11-08T07:34:42.486Z,99824.63
2022-11-08T07:37:32.219Z,99848.97
2022-11-08T07:40:20.824Z,99844.59
2022-11-08T07:43:12.187Z,99837.91
2022-11-08T07:46:03.570Z,99834.09
2022-11-08T07:48:52.024Z,99842.53
2022-11-08T07:51:40.487Z,99843.50
2022-11-08T07:54:28.895Z,99845.78
2022-11-08T07:57:17.342Z,99839.03
2022-11-08T08:00:07.955Z,99857.75
2022-11-08T08:03:00.167Z,99792.81
2022-11-08T08:05:59.580Z,99836.56
2022-11-08T08:08:49.099Z,99830.81
2022-11-08T08:11:37.545Z,99833.63
2022-11-08T08:14:26.007Z,99834.59
2022-11-08T08:17:14.508Z,99830.59
2022-11-08T08:20:04.498Z,99844.88
2022-11-08T08:22:53.132Z,99851.84
2022-11-08T08:25:41.583Z,99845.75
2022-11-08T08:28:30.036Z,99842.91
2022-11-08T08:31:18.479Z,99854.31
2022-11-08T08:34:06.954Z,99863.19
2022-11-08T08:36:56.731Z,99873.75
2022-11-08T08:39:45.258Z,99879.22
2022-11-08T08:42:34.016Z,99880.72
2022-11-08T08:45:23.056Z,99881.16
2022-11-08T08:48:11.510Z,99883.47
2022-11-08T08:51:00.077Z,99888.91
2022-11-08T08:53:49.893Z,99890.97
2022-11-08T08:56:38.339Z,99896.53
2022-11-08T09:02:39.796Z,99889.16
2022-11-08T09:05:31.662Z,99867.34
2022-11-08T09:08:20.153Z,99876.84
2022-11-08T09:11:10.322Z,99880.97
2022-11-08T09:13:58.773Z,99879.72
2022-11-08T09:16:47.194Z,99889.81
2022-11-08T09:19:35.658Z,99869.75
2022-11-08T09:22:24.336Z,99888.47
2022-11-08T09:25:12.820Z,99894.91
2022-11-08T09:28:02.644Z,99902.03
2022-11-08T09:30:51.101Z,99897.03
2022-11-08T09:33:40.763Z,99897.69
2022-11-08T09:36:29.259Z,99886.63
2022-11-08T09:39:17.746Z,99890.63
2022-11-08T09:42:27.295Z,99899.53
2022-11-08T09:45:33.383Z,99889.09
2022-11-08T09:48:26.233Z,99887.75
2022-11-08T09:51:16.934Z,99887.16
2022-11-08T09:54:06.742Z,99885.38
2022-11-08T09:56:56.204Z,99880.88
2022-11-08T09:59:47.206Z,99892.81
2022-11-08T10:02:37.946Z,99884.16
2022-11-08T10:05:34.848Z,99887.34
2022-11-08T10:08:28.657Z,99895.78
2022-11-08T10:11:40.162Z,99888.25
2022-11-08T10:14:49.040Z,99878.78
2022-11-08T10:17:53.212Z,99888.59
2022-11-08T10:20:49.798Z,99880.16
2022-11-08T10:23:44.674Z,99872.88
2022-11-08T10:26:36.530Z,99869.09
2022-11-08T10:29:28.964Z,99870.09
2022-11-08T10:32:21.444Z,99840.75
2022-11-08T10:35:28.467Z,99872.44
2022-11-08T10:38:19.857Z,99871.13
2022-11-08T10:41:14.216Z,99865.53
2022-11-08T10:44:06.052Z,99864.28
2022-11-08T10:46:59.900Z,99853.16
2022-11-08T10:49:48.398Z,99842.06
2022-11-08T10:52:41.518Z,99856.97
2022-11-08T10:55:33.470Z,99831.56
2022-11-08T10:58:34.051Z,99858.88
2022-11-08T11:01:24.335Z,99853.44
2022-11-08T11:04:26.952Z,99841.63
2022-11-08T11:07:33.595Z,99827.91
2022-11-08T11:10:26.698Z,99859.22
2022-11-08T11:13:20.285Z,99845.66
2022-11-08T11:16:13.575Z,99850.16
2022-11-08T11:19:02.901Z,99849.81
2022-11-08T11:21:56.433Z,99817.97
2022-11-08T11:24:48.898Z,99841.38
2022-11-08T11:27:39.174Z,99840.41
2022-11-08T11:30:32.800Z,99838.09
2022-11-08T11:33:24.737Z,99842.69
2022-11-08T11:36:17.027Z,99843.25
2022-11-08T11:39:11.636Z,99819.72
2022-11-08T11:42:23.857Z,99829.22
2022-11-08T11:45:19.098Z,99826.44
2022-11-08T11:48:13.852Z,99817.72
2022-11-08T11:51:03.031Z,99818.56
2022-11-08T11:53:51.546Z,99814.31
2022-11-08T11:56:47.052Z,99809.72
2022-11-08T11:59:54.253Z,99815.56
2022-11-08T12:03:30.046Z,99809.66
2022-11-08T12:06:29.711Z,99809.97
2022-11-08T12:09:33.437Z,99808.44
2022-11-08T12:12:29.297Z,99785.56
2022-11-08T12:15:23.669Z,99802.06
2022-11-08T12:18:41.950Z,99793.69
2022-11-08T12:21:39.007Z,99799.44
2022-11-08T12:24:35.963Z,99793.78
2022-11-08T12:27:33.233Z,99780.16
2022-11-08T12:30:25.175Z,99780.94
2022-11-08T12:33:28.269Z,99784.59
2022-11-08T12:36:22.446Z,99780.59
2022-11-08T12:39:23.473Z,99784.19
2022-11-08T12:42:26.819Z,99778.44
2022-11-08T12:45:39.822Z,99776.56
2022-11-08T12:48:37.773Z,99767.88
2022-11-08T12:51:30.843Z,99769.84
2022-11-08T12:54:25.930Z,99765.25
2022-11-08T12:57:17.396Z,99764.44
2022-11-08T13:00:08.520Z,99752.56
2022-11-08T13:03:03.238Z,99749.91
2022-11-08T13:05:56.725Z,99742.44
2022-11-08T13:08:50.851Z,99715.69
2022-11-08T13:11:47.760Z,99744.59
2022-11-08T13:14:41.094Z,99725.16
2022-11-08T13:17:30.668Z,99744.59
2022-11-08T13:20:43.434Z,99729.59
2022-11-08T13:23:33.065Z,99735.50
2022-11-08T13:26:22.445Z,99612.41
2022-11-08T13:29:22.629Z,99740.44
2022-11-08T13:32:19.074Z,99734.94
2022-11-08T13:35:13.359Z,99711.66
2022-11-08T13:38:08.860Z,99739.19
2022-11-08T13:41:13.113Z,99742.63
2022-11-08T13:44:01.559Z,99738.81
2022-11-08T13:46:51.437Z,99737.19
2022-11-08T13:49:39.910Z,99747.16
2022-11-08T13:53:02.508Z,99745.84
2022-11-08T13:55:52.521Z,99747.47
2022-11-08T13:58:42.247Z,99739.34
2022-11-08T14:02:00.626Z,99735.03
2022-11-08T14:04:49.155Z,99728.63
2022-11-08T14:07:41.728Z,99733.78
2022-11-08T14:10:36.325Z,99729.38
2022-11-08T14:13:27.361Z,99731.25
2022-11-08T14:16:17.623Z,99720.94
2022-11-08T14:19:22.294Z,99722.97
2022-11-08T14:22:17.177Z,99719.38
2022-11-08T14:25:15.337Z,99710.78
2022-11-08T14:28:03.898Z,99718.22
2022-11-08T14:30:52.642Z,99718.44
2022-11-08T14:33:42.777Z,99702.81
2022-11-08T14:36:33.224Z,99708.81
2022-11-08T14:39:26.891Z,99468.97
2022-11-08T14:42:21.087Z,99712.75
2022-11-08T14:45:14.247Z,99708.66
2022-11-08T14:48:04.455Z,99703.75
2022-11-08T14:50:59.396Z,99698.41
2022-11-08T14:53:50.594Z,99698.25
2022-11-08T14:56:39.569Z,99673.38
2022-11-08T14:59:28.016Z,99703.50
2022-11-08T15:02:16.439Z,99698.47
2022-11-08T15:05:05.546Z,99703.69
2022-11-08T15:07:54.082Z,99697.97
2022-11-08T15:10:54.886Z,99691.09
2022-11-08T15:13:45.190Z,99689.59
2022-11-08T15:16:41.573Z,99704.66
2022-11-08T15:19:33.814Z,99690.47
2022-11-08T15:22:25.148Z,99692.03
2022-11-08T15:25:23.298Z,99685.25
2022-11-08T15:28:21.441Z,99681.88
2022-11-08T15:31:14.467Z,99672.41
2022-11-08T15:34:03.149Z,99586.66
2022-11-08T15:36:51.646Z,99682.59
2022-11-08T15:39:40.822Z,99683.31
2022-11-08T15:42:29.425Z,99679.09
2022-11-08T15:45:28.734Z,99680.31
2022-11-08T15:48:22.773Z,99674.94
2022-11-08T15:51:11.228Z,99670.47
2022-11-08T15:53:59.787Z,99670.25
2022-11-08T15:56:48.865Z,99668.41
2022-11-08T15:59:37.567Z,99657.06
2022-11-08T16:02:27.333Z,99661.72
2022-11-08T16:05:17.215Z,99656.94
2022-11-08T16:08:06.235Z,99662.78
2022-11-08T16:10:56.071Z,99662.09
2022-11-08T16:13:44.511Z,99658.34
2022-11-08T16:16:35.283Z,99523.06
2022-11-08T16:19:26.101Z,99656.00
2022-11-08T16:22:19.045Z,99667.25
2022-11-08T16:25:08.747Z,99652.47
2022-11-08T16:27:58.975Z,99651.09
2022-11-08T16:30:47.975Z,99658.34
2022-11-08T16:33:36.826Z,99634.19
2022-11-08T16:36:28.027Z,99640.25
2022-11-08T16:39:17.471Z,99642.03
2022-11-08T16:42:06.319Z,99654.81
2022-11-08T16:44:54.877Z,99659.72
2022-11-08T16:47:45.782Z,99653.03
2022-11-08T16:50:34.276Z,99656.41
2022-11-08T16:53:25.668Z,99651.16
2022-11-08T16:56:14.382Z,99648.00
2022-11-08T16:59:02.791Z,99652.19
2022-11-08T17:01:51.343Z,99658.63
2022-11-08T17:04:39.798Z,99651.25
2022-11-08T17:07:29.189Z,99654.81
2022-11-08T17:10:21.448Z,99660.41
2022-11-08T17:13:11.575Z,99669.88
2022-11-08T17:16:01.413Z,99643.41
2022-11-08T17:18:52.945Z,99683.44
2022-11-08T17:21:45.895Z,99681.28
2022-11-08T17:24:34.516Z,99680.22
2022-11-08T17:27:24.411Z,99674.97
2022-11-08T17:30:14.486Z,99682.94
2022-11-08T17:33:03.009Z,99672.69
2022-11-08T17:35:52.018Z,99690.84
2022-11-08T17:38:42.406Z,99694.81
2022-11-08T17:41:31.096Z,99692.94
2022-11-08T17:44:20.972Z,99699.44
2022-11-08T17:47:09.438Z,99700.13
2022-11-08T17:49:57.906Z,99710.28
2022-11-08T17:52:46.486Z,99705.72
2022-11-08T17:55:34.962Z,99707.34
2022-11-08T17:58:24.062Z,99703.72
2022-11-08T18:01:15.938Z,99705.44
2022-11-08T18:04:05.014Z,99687.78
2022-11-08T18:06:53.634Z,99706.53
2022-11-08T18:09:42.331Z,99564.84
2022-11-08T18:12:30.866Z,99694.97
2022-11-08T18:15:19.427Z,99689.72
2022-11-08T18:18:09.404Z,99696.28
2022-11-08T18:20:57.889Z,99694.88
2022-11-08T18:23:47.614Z,99711.41
2022-11-08T18:26:36.105Z,99697.56
2022-11-08T18:29:24.738Z,99683.91
2022-11-08T18:32:13.215Z,99550.38
2022-11-08T18:35:03.046Z,99700.34
2022-11-08T18:37:51.479Z,99701.84
2022-11-08T18:40:40.114Z,99699.06
2022-11-08T18:43:28.624Z,99703.25
2022-11-08T18:46:18.877Z,99709.22
2022-11-08T18:49:07.470Z,99692.88
2022-11-08T18:51:57.534Z,99694.50
2022-11-08T18:54:47.355Z,99689.97
2022-11-08T18:57:35.782Z,99682.56
2022-11-08T19:00:24.283Z,99689.13
2022-11-08T19:03:12.922Z,99671.75
2022-11-08T19:06:01.598Z,99652.25
2022-11-08T19:08:51.431Z,99683.69
2022-11-08T19:11:39.961Z,99679.38
2022-11-08T19:14:28.463Z,99678.53
2022-11-08T19:17:17.104Z,99683.28
2022-11-08T19:20:06.682Z,99519.09
2022-11-08T19:22:55.653Z,99630.47
2022-11-08T19:25:45.518Z,99683.97
2022-11-08T19:28:34.970Z,99670.22
2022-11-08T19:31:25.000Z,99681.13
2022-11-08T19:34:13.715Z,99668.59
2022-11-08T19:37:02.272Z,99574.94
2022-11-08T19:39:50.718Z,99687.25
2022-11-08T19:42:40.544Z,99698.00
2022-11-08T19:45:29.054Z,99699.19
2022-11-08T19:48:17.934Z,99698.53
2022-11-08T19:51:08.499Z,99698.94
2022-11-08T19:53:58.726Z,99676.72
2022-11-08T19:57:04.871Z,99688.84
2022-11-08T19:59:55.629Z,99698.41
2022-11-08T20:02:44.155Z,99683.81
2022-11-08T20:05:32.677Z,99697.25
2022-11-08T20:08:22.028Z,99700.56
2022-11-08T20:11:13.411Z,99704.03
2022-11-08T20:14:02.946Z,99703.38
2022-11-08T20:16:54.172Z,99708.88
2022-11-08T20:19:42.712Z,99709.19
2022-11-08T20:22:31.529Z,99704.66
2022-11-08T20:25:20.058Z,99705.16
2022-11-08T20:28:08.739Z,99711.53
2022-11-08T20:31:02.460Z,99713.59
2022-11-08T20:33:53.583Z,99714.03
2022-11-08T20:36:44.043Z,99724.56
2022-11-08T20:39:33.564Z,99719.41
2022-11-08T20:42:23.579Z,99724.41
2022-11-08T20:45:14.909Z,99718.06
2022-11-08T20:48:03.856Z,99722.97
2022-11-08T20:50:57.760Z,99732.69
2022-11-08T20:53:46.416Z,99726.09
2022-11-08T20:56:34.916Z,99730.00
2022-11-08T20:59:23.472Z,99731.66
2022-11-08T21:02:12.817Z,99730.66
2022-11-08T21:05:01.359Z,99737.06
2022-11-08T21:08:56.959Z,99750.72
2022-11-08T21:11:00.293Z,99750.28
2022-11-08T21:13:48.793Z,99744.09
2022-11-08T21:17:06.714Z,99744.91
2022-11-08T21:19:48.231Z,99746.53
2022-11-08T21:22:36.701Z,99734.25
2022-11-08T21:25:26.525Z,99784.78
2022-11-08T21:28:15.055Z,99781.09
2022-11-08T21:31:03.705Z,99777.69
2022-11-08T21:33:52.198Z,99775.06
2022-11-08T21:36:40.660Z,99744.56
2022-11-08T21:39:29.129Z,99760.16
2022-11-08T21:42:18.923Z,99758.53
2022-11-08T21:45:08.935Z,99754.53
2022-11-08T21:47:57.392Z,99770.47
2022-11-08T21:50:45.830Z,99716.53
2022-11-08T21:53:34.323Z,99732.53
2022-11-08T21:56:23.111Z,99687.78
2022-11-08T21:59:13.158Z,99754.16
2022-11-08T22:02:01.666Z,99759.94
2022-11-08T22:04:50.145Z,99741.78
2022-11-08T22:07:38.843Z,99750.28
2022-11-08T22:10:27.327Z,99769.31
2022-11-08T22:13:15.811Z,99760.41
2022-11-08T22:16:06.263Z,99770.34
2022-11-08T22:19:10.325Z,99752.84
2022-11-08T22:21:59.398Z,99764.75
2022-11-08T22:24:48.370Z,99767.16
2022-11-08T22:27:36.878Z,99716.25
2022-11-08T22:30:25.346Z,99719.56
2022-11-08T22:33:15.219Z,99751.31
2022-11-08T22:36:03.673Z,99746.06
2022-11-08T22:38:52.114Z,99733.78
2022-11-08T22:41:40.592Z,99745.41
2022-11-08T22:44:29.264Z,99730.00
2022-11-08T22:47:17.734Z,99709.47
2022-11-08T22:50:08.549Z,99717.91
2022-11-08T22:52:57.019Z,99707.75
2022-11-08T22:55:45.718Z,99701.28
2022-11-08T22:58:34.525Z,99701.50
2022-11-08T23:01:23.007Z,99696.66
2022-11-08T23:04:11.641Z,99700.22
2022-11-08T23:07:01.461Z,99712.72
2022-11-08T23:09:49.946Z,99708.19
2022-11-08T23:12:56.003Z,99684.28
2022-11-08T23:16:02.052Z,99702.19
2022-11-08T23:19:04.414Z,99711.22
2022-11-08T23:22:10.986Z,99681.28
2022-11-08T23:25:01.014Z,99688.66
2022-11-08T23:28:08.555Z,99698.31
2022-11-08T23:31:14.420Z,99705.78
2022-11-08T23:34:03.206Z,99706.91
2022-11-08T23:36:51.671Z,99707.06
2022-11-08T23:40:00.301Z,99721.25
2022-11-08T23:43:07.719Z,99715.97
2022-11-08T23:45:56.556Z,99725.44
2022-11-08T23:48:44.983Z,99725.28
2022-11-08T23:51:33.549Z,99702.13
2022-11-08T23:54:22.034Z,99710.38
2022-11-08T23:57:10.515Z,99714.53
